Weather at M. R. Štefánik Airport

Public forecast

Using degrees Celsius for public forecast. Weather courtesy of forecast.io.

Current aviation weather report (METAR) for M. R. Štefánik Airport

Retrieved 2022/05/21 21:00 UTC (17 minutes ago):

LZIB 212100Z 33008KT CAVOK 18/07 Q1017 NOSIG

Aviation forecast (TAF) for M. R. Štefánik Airport

Retrieved 2022/05/21 18:18 UTC (3 hours ago):

TAF LZIB 211715Z 2118/2218 30011KT CAVOK BECMG 2200/2202 34007KT